Taopi, Minnesota
Current Conditions -  °F | °C
As of 5:56 PM on Friday 28 Nov 2014 (Local Time) from KAUM Reporting Station
Clear Clear  
Wind Chill: 14°   Ceiling: Unl
Heat Index: 23°   Visibility: 10mi
Dew Point: 19°   Wind: 8mph
Humidity: 86%   Direction: 130°SE
Pressure: 29.78"   Gusts: NA
Location:  43.56°N, 92.64°W
Report Text: KAUM 282356Z AUTO 13007KT 10SM CLR M05/M07 A2978 RMK AO2
Loading
Personal Weather Stations






























Interactive Weather Map New forecast layout! Learn more

10-Day Weather Forecast

Advertisements
Track Severe Weather on mobile